sensor_id;sensor_type;location;lat;lon;timestamp;temperature;humidity
29237;DHT22;16266;50.866;4.398;2022-11-09T00:02:22;14.80;99.90
29237;DHT22;16266;50.866;4.398;2022-11-09T00:04:47;14.80;99.90
29237;DHT22;16266;50.866;4.398;2022-11-09T00:07:14;14.70;99.90
29237;DHT22;16266;50.866;4.398;2022-11-09T00:09:40;14.60;99.90
29237;DHT22;16266;50.866;4.398;2022-11-09T00:12:06;14.70;99.90
29237;DHT22;16266;50.866;4.398;2022-11-09T00:14:33;14.70;99.90
29237;DHT22;16266;50.866;4.398;2022-11-09T00:16:59;14.70;99.90
29237;DHT22;16266;50.866;4.398;2022-11-09T00:19:25;14.70;99.90
29237;DHT22;16266;50.866;4.398;2022-11-09T00:21:51;14.60;99.90
29237;DHT22;16266;50.866;4.398;2022-11-09T00:24:16;14.50;99.90
29237;DHT22;16266;50.866;4.398;2022-11-09T00:26:42;14.50;99.90
29237;DHT22;16266;50.866;4.398;2022-11-09T00:29:08;14.50;99.90
29237;DHT22;16266;50.866;4.398;2022-11-09T00:31:34;14.60;99.90
29237;DHT22;16266;50.866;4.398;2022-11-09T00:34:00;14.50;99.90
29237;DHT22;16266;50.866;4.398;2022-11-09T00:36:27;14.50;99.90
29237;DHT22;16266;50.866;4.398;2022-11-09T00:38:55;14.40;99.90
29237;DHT22;16266;50.866;4.398;2022-11-09T00:41:22;14.30;99.90
29237;DHT22;16266;50.866;4.398;2022-11-09T00:43:48;14.20;99.90
29237;DHT22;16266;50.866;4.398;2022-11-09T00:46:14;14.10;99.90
29237;DHT22;16266;50.866;4.398;2022-11-09T00:48:40;14.10;99.90
29237;DHT22;16266;50.866;4.398;2022-11-09T00:51:05;14.00;99.90
29237;DHT22;16266;50.866;4.398;2022-11-09T00:53:31;13.90;99.90
29237;DHT22;16266;50.866;4.398;2022-11-09T00:58:25;13.80;99.90
29237;DHT22;16266;50.866;4.398;2022-11-09T01:00:51;13.70;99.90
29237;DHT22;16266;50.866;4.398;2022-11-09T01:03:17;13.80;99.90
29237;DHT22;16266;50.866;4.398;2022-11-09T01:05:43;13.70;99.90
29237;DHT22;16266;50.866;4.398;2022-11-09T01:08:09;13.70;99.90
29237;DHT22;16266;50.866;4.398;2022-11-09T01:10:35;13.60;99.90
29237;DHT22;16266;50.866;4.398;2022-11-09T01:13:03;13.60;99.90
29237;DHT22;16266;50.866;4.398;2022-11-09T01:15:29;13.50;99.90
29237;DHT22;16266;50.866;4.398;2022-11-09T01:17:55;13.50;99.90
29237;DHT22;16266;50.866;4.398;2022-11-09T01:20:21;13.50;99.90
29237;DHT22;16266;50.866;4.398;2022-11-09T01:22:46;13.50;99.90
29237;DHT22;16266;50.866;4.398;2022-11-09T01:25:12;13.50;99.90
29237;DHT22;16266;50.866;4.398;2022-11-09T01:27:37;13.50;99.90
29237;DHT22;16266;50.866;4.398;2022-11-09T01:30:03;13.50;99.90
29237;DHT22;16266;50.866;4.398;2022-11-09T01:32:32;13.50;99.90
29237;DHT22;16266;50.866;4.398;2022-11-09T01:34:58;13.60;99.90
29237;DHT22;16266;50.866;4.398;2022-11-09T01:37:23;13.60;99.90
29237;DHT22;16266;50.866;4.398;2022-11-09T01:39:49;13.70;99.90
29237;DHT22;16266;50.866;4.398;2022-11-09T01:42:21;13.70;99.90
29237;DHT22;16266;50.866;4.398;2022-11-09T01:44:47;13.80;99.90
29237;DHT22;16266;50.866;4.398;2022-11-09T01:47:20;13.80;99.90
29237;DHT22;16266;50.866;4.398;2022-11-09T01:49:51;13.80;99.90
29237;DHT22;16266;50.866;4.398;2022-11-09T01:52:27;13.90;99.90
29237;DHT22;16266;50.866;4.398;2022-11-09T01:55:02;13.90;99.90
29237;DHT22;16266;50.866;4.398;2022-11-09T01:57:35;14.00;99.90
29237;DHT22;16266;50.866;4.398;2022-11-09T02:00:08;14.00;99.90
29237;DHT22;16266;50.866;4.398;2022-11-09T02:02:35;14.00;99.90
29237;DHT22;16266;50.866;4.398;2022-11-09T02:05:08;14.00;99.90
29237;DHT22;16266;50.866;4.398;2022-11-09T02:07:36;14.10;99.90
29237;DHT22;16266;50.866;4.398;2022-11-09T02:12:34;13.90;99.90
29237;DHT22;16266;50.866;4.398;2022-11-09T02:15:02;13.90;99.90
29237;DHT22;16266;50.866;4.398;2022-11-09T02:17:29;13.70;99.90
29237;DHT22;16266;50.866;4.398;2022-11-09T02:19:58;13.60;99.90
29237;DHT22;16266;50.866;4.398;2022-11-09T02:22:24;13.50;99.90
29237;DHT22;16266;50.866;4.398;2022-11-09T02:24:50;13.50;99.90
29237;DHT22;16266;50.866;4.398;2022-11-09T02:27:16;13.40;99.90
29237;DHT22;16266;50.866;4.398;2022-11-09T02:29:44;13.40;99.90
29237;DHT22;16266;50.866;4.398;2022-11-09T02:32:29;13.30;99.90
29237;DHT22;16266;50.866;4.398;2022-11-09T02:34:55;13.30;99.90
29237;DHT22;16266;50.866;4.398;2022-11-09T02:37:39;13.30;99.90
29237;DHT22;16266;50.866;4.398;2022-11-09T02:40:15;13.20;99.90
29237;DHT22;16266;50.866;4.398;2022-11-09T02:42:42;13.20;99.90
29237;DHT22;16266;50.866;4.398;2022-11-09T02:45:08;13.10;99.90
29237;DHT22;16266;50.866;4.398;2022-11-09T02:47:34;13.20;99.90
29237;DHT22;16266;50.866;4.398;2022-11-09T02:50:00;13.30;99.90
29237;DHT22;16266;50.866;4.398;2022-11-09T02:52:25;13.20;99.90
29237;DHT22;16266;50.866;4.398;2022-11-09T02:54:51;13.20;99.90
29237;DHT22;16266;50.866;4.398;2022-11-09T02:57:16;13.10;99.90
29237;DHT22;16266;50.866;4.398;2022-11-09T02:59:42;13.00;99.90
29237;DHT22;16266;50.866;4.398;2022-11-09T03:02:08;12.90;99.90
29237;DHT22;16266;50.866;4.398;2022-11-09T03:04:34;12.80;99.90
29237;DHT22;16266;50.866;4.398;2022-11-09T03:06:59;13.00;99.90
29237;DHT22;16266;50.866;4.398;2022-11-09T03:09:25;12.80;99.90
29237;DHT22;16266;50.866;4.398;2022-11-09T03:11:50;12.80;99.90
29237;DHT22;16266;50.866;4.398;2022-11-09T03:14:16;12.90;99.90
29237;DHT22;16266;50.866;4.398;2022-11-09T03:16:42;12.80;99.90
29237;DHT22;16266;50.866;4.398;2022-11-09T03:19:08;12.90;99.90
29237;DHT22;16266;50.866;4.398;2022-11-09T03:21:34;12.90;99.90
29237;DHT22;16266;50.866;4.398;2022-11-09T03:23:59;12.80;99.90
29237;DHT22;16266;50.866;4.398;2022-11-09T03:26:25;12.80;99.90
29237;DHT22;16266;50.866;4.398;2022-11-09T03:28:51;12.70;99.90
29237;DHT22;16266;50.866;4.398;2022-11-09T03:31:16;12.70;99.90
29237;DHT22;16266;50.866;4.398;2022-11-09T03:33:42;12.90;99.90
29237;DHT22;16266;50.866;4.398;2022-11-09T03:36:08;12.90;99.90
29237;DHT22;16266;50.866;4.398;2022-11-09T03:38:34;12.90;99.90
29237;DHT22;16266;50.866;4.398;2022-11-09T03:41:00;13.10;99.90
29237;DHT22;16266;50.866;4.398;2022-11-09T03:43:27;13.00;99.90
29237;DHT22;16266;50.866;4.398;2022-11-09T03:45:54;13.00;99.90
29237;DHT22;16266;50.866;4.398;2022-11-09T03:48:19;13.10;99.90
29237;DHT22;16266;50.866;4.398;2022-11-09T03:50:45;13.00;99.90
29237;DHT22;16266;50.866;4.398;2022-11-09T03:53:11;13.10;99.90
29237;DHT22;16266;50.866;4.398;2022-11-09T03:55:38;13.00;99.90
29237;DHT22;16266;50.866;4.398;2022-11-09T03:58:04;12.90;99.90
29237;DHT22;16266;50.866;4.398;2022-11-09T04:00:31;12.80;99.90
29237;DHT22;16266;50.866;4.398;2022-11-09T04:02:57;12.80;99.90
29237;DHT22;16266;50.866;4.398;2022-11-09T04:05:22;12.70;99.90
29237;DHT22;16266;50.866;4.398;2022-11-09T04:07:54;12.60;99.90
29237;DHT22;16266;50.866;4.398;2022-11-09T04:10:20;12.50;99.90
29237;DHT22;16266;50.866;4.398;2022-11-09T04:12:47;12.50;99.90
29237;DHT22;16266;50.866;4.398;2022-11-09T04:15:13;12.50;99.90
29237;DHT22;16266;50.866;4.398;2022-11-09T04:17:39;12.40;99.90
29237;DHT22;16266;50.866;4.398;2022-11-09T04:20:06;12.40;99.90
29237;DHT22;16266;50.866;4.398;2022-11-09T04:22:32;12.50;99.90
29237;DHT22;16266;50.866;4.398;2022-11-09T04:24:57;12.40;99.90
29237;DHT22;16266;50.866;4.398;2022-11-09T04:27:23;12.40;99.90
29237;DHT22;16266;50.866;4.398;2022-11-09T04:29:49;12.30;99.90
29237;DHT22;16266;50.866;4.398;2022-11-09T04:32:15;12.40;99.90
29237;DHT22;16266;50.866;4.398;2022-11-09T04:34:40;12.30;99.90
29237;DHT22;16266;50.866;4.398;2022-11-09T04:37:07;12.30;99.90
29237;DHT22;16266;50.866;4.398;2022-11-09T04:39:32;12.20;99.90
29237;DHT22;16266;50.866;4.398;2022-11-09T04:41:58;12.20;99.90
29237;DHT22;16266;50.866;4.398;2022-11-09T04:44:24;12.30;99.90
29237;DHT22;16266;50.866;4.398;2022-11-09T04:46:49;12.30;99.90
29237;DHT22;16266;50.866;4.398;2022-11-09T04:49:15;12.40;99.90
29237;DHT22;16266;50.866;4.398;2022-11-09T04:51:41;12.30;99.90
29237;DHT22;16266;50.866;4.398;2022-11-09T04:54:06;12.30;99.90
29237;DHT22;16266;50.866;4.398;2022-11-09T04:56:32;12.30;99.90
29237;DHT22;16266;50.866;4.398;2022-11-09T04:58:57;12.30;99.90
29237;DHT22;16266;50.866;4.398;2022-11-09T05:01:23;12.20;99.90
29237;DHT22;16266;50.866;4.398;2022-11-09T05:03:49;12.20;99.90
29237;DHT22;16266;50.866;4.398;2022-11-09T05:06:14;12.20;99.90
29237;DHT22;16266;50.866;4.398;2022-11-09T05:09:00;12.30;99.90
29237;DHT22;16266;50.866;4.398;2022-11-09T05:11:26;12.20;99.90
29237;DHT22;16266;50.866;4.398;2022-11-09T05:13:52;12.30;99.90
29237;DHT22;16266;50.866;4.398;2022-11-09T05:16:18;12.10;99.90
29237;DHT22;16266;50.866;4.398;2022-11-09T05:18:44;12.10;99.90
29237;DHT22;16266;50.866;4.398;2022-11-09T05:21:10;12.00;99.90
29237;DHT22;16266;50.866;4.398;2022-11-09T05:23:36;12.00;99.90
29237;DHT22;16266;50.866;4.398;2022-11-09T05:26:20;12.00;99.90
29237;DHT22;16266;50.866;4.398;2022-11-09T05:28:46;12.00;99.90
29237;DHT22;16266;50.866;4.398;2022-11-09T05:31:11;12.00;99.90
29237;DHT22;16266;50.866;4.398;2022-11-09T05:33:37;12.00;99.90
29237;DHT22;16266;50.866;4.398;2022-11-09T05:36:02;12.00;99.90
29237;DHT22;16266;50.866;4.398;2022-11-09T05:38:28;12.00;99.90
29237;DHT22;16266;50.866;4.398;2022-11-09T05:40:54;12.00;99.90
29237;DHT22;16266;50.866;4.398;2022-11-09T05:43:20;12.00;99.90
29237;DHT22;16266;50.866;4.398;2022-11-09T05:45:46;12.00;99.90
29237;DHT22;16266;50.866;4.398;2022-11-09T05:48:13;12.10;99.90
29237;DHT22;16266;50.866;4.398;2022-11-09T05:50:39;12.00;99.90
29237;DHT22;16266;50.866;4.398;2022-11-09T05:53:06;12.00;99.90
29237;DHT22;16266;50.866;4.398;2022-11-09T05:55:32;12.00;99.90
29237;DHT22;16266;50.866;4.398;2022-11-09T05:57:58;11.90;99.90
29237;DHT22;16266;50.866;4.398;2022-11-09T06:00:24;12.00;99.90
29237;DHT22;16266;50.866;4.398;2022-11-09T06:02:50;12.10;99.90
29237;DHT22;16266;50.866;4.398;2022-11-09T06:05:15;11.90;99.90
29237;DHT22;16266;50.866;4.398;2022-11-09T06:07:41;12.10;99.90
29237;DHT22;16266;50.866;4.398;2022-11-09T06:10:08;11.90;99.90
29237;DHT22;16266;50.866;4.398;2022-11-09T06:12:34;11.90;99.90
29237;DHT22;16266;50.866;4.398;2022-11-09T06:14:59;11.90;99.90
29237;DHT22;16266;50.866;4.398;2022-11-09T06:17:25;11.80;99.90
29237;DHT22;16266;50.866;4.398;2022-11-09T06:19:51;11.90;99.90
29237;DHT22;16266;50.866;4.398;2022-11-09T06:22:16;11.90;99.90
29237;DHT22;16266;50.866;4.398;2022-11-09T06:24:42;11.80;99.90
29237;DHT22;16266;50.866;4.398;2022-11-09T06:27:08;11.90;99.90
29237;DHT22;16266;50.866;4.398;2022-11-09T06:29:33;11.90;99.90
29237;DHT22;16266;50.866;4.398;2022-11-09T06:31:59;11.90;99.90
29237;DHT22;16266;50.866;4.398;2022-11-09T06:34:24;11.90;99.90
29237;DHT22;16266;50.866;4.398;2022-11-09T06:36:50;11.80;99.90
29237;DHT22;16266;50.866;4.398;2022-11-09T06:39:16;11.90;99.90
29237;DHT22;16266;50.866;4.398;2022-11-09T06:41:41;11.80;99.90
29237;DHT22;16266;50.866;4.398;2022-11-09T06:44:07;11.90;99.90
29237;DHT22;16266;50.866;4.398;2022-11-09T06:46:33;11.80;99.90
29237;DHT22;16266;50.866;4.398;2022-11-09T06:48:59;11.80;99.90
29237;DHT22;16266;50.866;4.398;2022-11-09T06:51:24;11.80;99.90
29237;DHT22;16266;50.866;4.398;2022-11-09T06:53:50;11.80;99.90
29237;DHT22;16266;50.866;4.398;2022-11-09T06:56:16;11.80;99.90
29237;DHT22;16266;50.866;4.398;2022-11-09T06:58:42;11.80;99.90
29237;DHT22;16266;50.866;4.398;2022-11-09T07:01:09;11.80;99.90
29237;DHT22;16266;50.866;4.398;2022-11-09T07:03:36;11.80;99.90
29237;DHT22;16266;50.866;4.398;2022-11-09T07:06:07;11.80;99.90
29237;DHT22;16266;50.866;4.398;2022-11-09T07:08:34;11.90;99.90
29237;DHT22;16266;50.866;4.398;2022-11-09T07:11:13;11.80;99.90
29237;DHT22;16266;50.866;4.398;2022-11-09T07:13:41;11.90;99.90
29237;DHT22;16266;50.866;4.398;2022-11-09T07:16:07;11.90;99.90
29237;DHT22;16266;50.866;4.398;2022-11-09T07:18:33;11.90;99.90
29237;DHT22;16266;50.866;4.398;2022-11-09T07:20:59;12.00;99.90
29237;DHT22;16266;50.866;4.398;2022-11-09T07:23:24;12.10;99.90
29237;DHT22;16266;50.866;4.398;2022-11-09T07:25:50;12.10;99.90
29237;DHT22;16266;50.866;4.398;2022-11-09T07:28:17;12.20;99.90
29237;DHT22;16266;50.866;4.398;2022-11-09T07:30:43;12.30;99.90
29237;DHT22;16266;50.866;4.398;2022-11-09T07:33:16;12.40;99.90
29237;DHT22;16266;50.866;4.398;2022-11-09T07:35:45;12.50;99.90
29237;DHT22;16266;50.866;4.398;2022-11-09T07:38:12;12.70;99.90
29237;DHT22;16266;50.866;4.398;2022-11-09T07:40:38;12.70;99.90
29237;DHT22;16266;50.866;4.398;2022-11-09T07:43:05;12.80;99.90
29237;DHT22;16266;50.866;4.398;2022-11-09T07:45:32;12.80;99.90
29237;DHT22;16266;50.866;4.398;2022-11-09T07:47:59;12.80;99.90
29237;DHT22;16266;50.866;4.398;2022-11-09T07:50:26;12.90;99.90
29237;DHT22;16266;50.866;4.398;2022-11-09T07:52:54;12.90;99.90
29237;DHT22;16266;50.866;4.398;2022-11-09T07:55:21;13.10;99.90
29237;DHT22;16266;50.866;4.398;2022-11-09T07:57:47;13.10;99.90
29237;DHT22;16266;50.866;4.398;2022-11-09T08:00:13;13.20;99.90
29237;DHT22;16266;50.866;4.398;2022-11-09T08:02:39;13.40;99.90
29237;DHT22;16266;50.866;4.398;2022-11-09T08:05:05;13.90;99.90
29237;DHT22;16266;50.866;4.398;2022-11-09T08:07:31;14.40;99.90
29237;DHT22;16266;50.866;4.398;2022-11-09T08:09:57;15.00;99.90
29237;DHT22;16266;50.866;4.398;2022-11-09T08:12:23;15.40;99.90
29237;DHT22;16266;50.866;4.398;2022-11-09T08:14:49;15.70;99.90
29237;DHT22;16266;50.866;4.398;2022-11-09T08:17:14;16.10;99.90
29237;DHT22;16266;50.866;4.398;2022-11-09T08:19:40;16.20;99.90
29237;DHT22;16266;50.866;4.398;2022-11-09T08:22:06;16.00;99.90
29237;DHT22;16266;50.866;4.398;2022-11-09T08:24:31;16.30;99.90
29237;DHT22;16266;50.866;4.398;2022-11-09T08:26:57;16.80;99.90
29237;DHT22;16266;50.866;4.398;2022-11-09T08:29:22;17.20;99.90
29237;DHT22;16266;50.866;4.398;2022-11-09T08:31:49;17.40;99.90
29237;DHT22;16266;50.866;4.398;2022-11-09T08:34:15;17.20;99.90
29237;DHT22;16266;50.866;4.398;2022-11-09T08:36:41;17.00;99.90
29237;DHT22;16266;50.866;4.398;2022-11-09T08:39:06;17.10;99.90
29237;DHT22;16266;50.866;4.398;2022-11-09T08:41:32;17.10;99.90
29237;DHT22;16266;50.866;4.398;2022-11-09T08:43:58;16.90;99.90
29237;DHT22;16266;50.866;4.398;2022-11-09T08:46:24;16.80;99.90
29237;DHT22;16266;50.866;4.398;2022-11-09T08:48:50;17.10;99.90
29237;DHT22;16266;50.866;4.398;2022-11-09T08:51:15;17.20;99.90
29237;DHT22;16266;50.866;4.398;2022-11-09T08:53:41;17.30;99.90
29237;DHT22;16266;50.866;4.398;2022-11-09T08:56:07;17.40;99.90
29237;DHT22;16266;50.866;4.398;2022-11-09T08:58:33;17.60;99.90
29237;DHT22;16266;50.866;4.398;2022-11-09T09:00:59;17.50;99.90
29237;DHT22;16266;50.866;4.398;2022-11-09T09:03:25;17.20;99.90
29237;DHT22;16266;50.866;4.398;2022-11-09T09:05:50;16.90;99.90
29237;DHT22;16266;50.866;4.398;2022-11-09T09:08:16;16.40;99.90
29237;DHT22;16266;50.866;4.398;2022-11-09T09:10:46;16.20;99.90
29237;DHT22;16266;50.866;4.398;2022-11-09T09:13:12;16.20;99.90
29237;DHT22;16266;50.866;4.398;2022-11-09T09:15:38;16.20;99.90
29237;DHT22;16266;50.866;4.398;2022-11-09T09:18:04;16.20;99.90
29237;DHT22;16266;50.866;4.398;2022-11-09T09:20:30;16.00;99.90
29237;DHT22;16266;50.866;4.398;2022-11-09T09:22:59;15.90;99.90
29237;DHT22;16266;50.866;4.398;2022-11-09T09:25:26;16.40;99.90
29237;DHT22;16266;50.866;4.398;2022-11-09T09:27:51;16.70;99.90
29237;DHT22;16266;50.866;4.398;2022-11-09T09:30:17;17.20;99.90
29237;DHT22;16266;50.866;4.398;2022-11-09T09:32:43;17.20;99.90
29237;DHT22;16266;50.866;4.398;2022-11-09T09:35:08;16.70;99.90
29237;DHT22;16266;50.866;4.398;2022-11-09T09:37:34;16.40;99.90
29237;DHT22;16266;50.866;4.398;2022-11-09T09:40:00;16.30;99.90
29237;DHT22;16266;50.866;4.398;2022-11-09T09:42:35;16.80;99.90
29237;DHT22;16266;50.866;4.398;2022-11-09T09:45:15;17.50;99.90
29237;DHT22;16266;50.866;4.398;2022-11-09T09:47:59;18.30;99.90
29237;DHT22;16266;50.866;4.398;2022-11-09T09:50:48;18.30;99.90
29237;DHT22;16266;50.866;4.398;2022-11-09T09:53:34;18.90;99.90
29237;DHT22;16266;50.866;4.398;2022-11-09T09:56:43;19.00;99.90
29237;DHT22;16266;50.866;4.398;2022-11-09T10:01:41;19.20;99.90
29237;DHT22;16266;50.866;4.398;2022-11-09T10:04:31;18.90;99.90
29237;DHT22;16266;50.866;4.398;2022-11-09T10:16:00;17.30;99.90
29237;DHT22;16266;50.866;4.398;2022-11-09T10:21:58;16.80;99.90
29237;DHT22;16266;50.866;4.398;2022-11-09T10:27:00;16.50;99.90
29237;DHT22;16266;50.866;4.398;2022-11-09T10:29:38;16.30;99.90
29237;DHT22;16266;50.866;4.398;2022-11-09T10:32:22;16.20;99.90
29237;DHT22;16266;50.866;4.398;2022-11-09T10:37:40;16.90;99.90
29237;DHT22;16266;50.866;4.398;2022-11-09T10:42:49;16.60;99.90
29237;DHT22;16266;50.866;4.398;2022-11-09T10:45:26;16.60;99.90
29237;DHT22;16266;50.866;4.398;2022-11-09T10:47:53;16.40;99.90
29237;DHT22;16266;50.866;4.398;2022-11-09T10:50:36;16.20;99.90
29237;DHT22;16266;50.866;4.398;2022-11-09T10:53:16;15.90;99.90
29237;DHT22;16266;50.866;4.398;2022-11-09T10:58:32;15.90;99.90
29237;DHT22;16266;50.866;4.398;2022-11-09T11:01:01;16.20;99.90
29237;DHT22;16266;50.866;4.398;2022-11-09T11:03:31;16.70;99.90
29237;DHT22;16266;50.866;4.398;2022-11-09T11:11:28;16.70;99.90
29237;DHT22;16266;50.866;4.398;2022-11-09T11:14:14;16.60;99.90
29237;DHT22;16266;50.866;4.398;2022-11-09T11:16:42;16.60;99.90
29237;DHT22;16266;50.866;4.398;2022-11-09T11:19:34;16.50;99.90
29237;DHT22;16266;50.866;4.398;2022-11-09T11:24:44;17.00;99.90
29237;DHT22;16266;50.866;4.398;2022-11-09T11:27:17;17.00;99.90
29237;DHT22;16266;50.866;4.398;2022-11-09T11:29:51;17.00;99.90
29237;DHT22;16266;50.866;4.398;2022-11-09T11:32:19;16.60;99.90
29237;DHT22;16266;50.866;4.398;2022-11-09T11:34:46;16.20;99.90
29237;DHT22;16266;50.866;4.398;2022-11-09T11:45:51;15.60;99.90
29237;DHT22;16266;50.866;4.398;2022-11-09T11:48:25;16.00;99.90
29237;DHT22;16266;50.866;4.398;2022-11-09T11:51:15;16.10;99.90
29237;DHT22;16266;50.866;4.398;2022-11-09T12:01:52;15.50;99.90
29237;DHT22;16266;50.866;4.398;2022-11-09T12:10:06;15.00;99.90
29237;DHT22;16266;50.866;4.398;2022-11-09T12:15:26;15.00;99.90
29237;DHT22;16266;50.866;4.398;2022-11-09T12:20:50;14.30;99.90
29237;DHT22;16266;50.866;4.398;2022-11-09T12:33:49;13.00;99.90
29237;DHT22;16266;50.866;4.398;2022-11-09T12:36:27;13.10;99.90
29237;DHT22;16266;50.866;4.398;2022-11-09T12:39:00;13.40;99.90
29237;DHT22;16266;50.866;4.398;2022-11-09T12:41:32;13.30;99.90
29237;DHT22;16266;50.866;4.398;2022-11-09T12:46:37;13.20;99.90
29237;DHT22;16266;50.866;4.398;2022-11-09T12:49:05;13.20;99.90
29237;DHT22;16266;50.866;4.398;2022-11-09T12:51:32;13.30;99.90
29237;DHT22;16266;50.866;4.398;2022-11-09T12:54:00;13.20;99.90
29237;DHT22;16266;50.866;4.398;2022-11-09T12:56:39;13.20;99.90
29237;DHT22;16266;50.866;4.398;2022-11-09T13:01:57;13.10;99.90
29237;DHT22;16266;50.866;4.398;2022-11-09T13:04:24;13.10;99.90
29237;DHT22;16266;50.866;4.398;2022-11-09T13:09:28;13.10;99.90
29237;DHT22;16266;50.866;4.398;2022-11-09T13:11:53;13.20;99.90
29237;DHT22;16266;50.866;4.398;2022-11-09T13:16:47;13.30;99.90
29237;DHT22;16266;50.866;4.398;2022-11-09T13:27:00;13.70;99.90
29237;DHT22;16266;50.866;4.398;2022-11-09T13:29:28;13.70;99.90
29237;DHT22;16266;50.866;4.398;2022-11-09T13:43:03;14.00;99.90
29237;DHT22;16266;50.866;4.398;2022-11-09T13:48:45;13.90;99.90
29237;DHT22;16266;50.866;4.398;2022-11-09T13:51:22;13.70;99.90
29237;DHT22;16266;50.866;4.398;2022-11-09T13:53:57;13.70;99.90
29237;DHT22;16266;50.866;4.398;2022-11-09T13:59:21;13.70;99.90
29237;DHT22;16266;50.866;4.398;2022-11-09T14:01:51;13.80;99.90
29237;DHT22;16266;50.866;4.398;2022-11-09T14:04:19;13.80;99.90
29237;DHT22;16266;50.866;4.398;2022-11-09T14:06:45;13.70;99.90
29237;DHT22;16266;50.866;4.398;2022-11-09T14:09:15;13.60;99.90
29237;DHT22;16266;50.866;4.398;2022-11-09T14:11:58;13.50;99.90
29237;DHT22;16266;50.866;4.398;2022-11-09T14:22:35;13.70;99.90
29237;DHT22;16266;50.866;4.398;2022-11-09T14:25:21;13.70;99.90
29237;DHT22;16266;50.866;4.398;2022-11-09T14:27:54;13.80;99.90
29237;DHT22;16266;50.866;4.398;2022-11-09T14:30:24;13.80;99.90
29237;DHT22;16266;50.866;4.398;2022-11-09T14:32:52;13.60;99.90
29237;DHT22;16266;50.866;4.398;2022-11-09T14:35:25;13.60;99.90
29237;DHT22;16266;50.866;4.398;2022-11-09T14:37:53;13.50;99.90
29237;DHT22;16266;50.866;4.398;2022-11-09T14:40:26;13.50;99.90
29237;DHT22;16266;50.866;4.398;2022-11-09T14:45:20;13.40;99.90
29237;DHT22;16266;50.866;4.398;2022-11-09T14:47:49;13.40;99.90
29237;DHT22;16266;50.866;4.398;2022-11-09T14:50:27;13.40;99.90
29237;DHT22;16266;50.866;4.398;2022-11-09T14:52:54;13.40;99.90
29237;DHT22;16266;50.866;4.398;2022-11-09T14:55:23;13.50;99.90
29237;DHT22;16266;50.866;4.398;2022-11-09T14:57:51;13.50;99.90
29237;DHT22;16266;50.866;4.398;2022-11-09T15:00:32;13.50;99.90
29237;DHT22;16266;50.866;4.398;2022-11-09T15:02:59;13.50;99.90
29237;DHT22;16266;50.866;4.398;2022-11-09T15:07:54;13.60;99.90
29237;DHT22;16266;50.866;4.398;2022-11-09T15:10:19;13.60;99.90
29237;DHT22;16266;50.866;4.398;2022-11-09T15:12:49;13.50;99.90
29237;DHT22;16266;50.866;4.398;2022-11-09T15:15:19;13.30;99.90
29237;DHT22;16266;50.866;4.398;2022-11-09T15:17:45;13.20;99.90
29237;DHT22;16266;50.866;4.398;2022-11-09T15:25:24;13.30;99.90
29237;DHT22;16266;50.866;4.398;2022-11-09T15:27:59;13.40;99.90
29237;DHT22;16266;50.866;4.398;2022-11-09T15:32:57;13.30;99.90
29237;DHT22;16266;50.866;4.398;2022-11-09T15:35:23;13.20;99.90
29237;DHT22;16266;50.866;4.398;2022-11-09T15:37:50;13.10;99.90
29237;DHT22;16266;50.866;4.398;2022-11-09T15:40:23;13.00;99.90
29237;DHT22;16266;50.866;4.398;2022-11-09T15:42:48;12.80;99.90
29237;DHT22;16266;50.866;4.398;2022-11-09T15:45:16;12.70;99.90
29237;DHT22;16266;50.866;4.398;2022-11-09T15:47:49;12.60;99.90
29237;DHT22;16266;50.866;4.398;2022-11-09T15:50:19;12.50;99.90
29237;DHT22;16266;50.866;4.398;2022-11-09T15:52:45;12.40;99.90
29237;DHT22;16266;50.866;4.398;2022-11-09T15:55:16;12.50;99.90
29237;DHT22;16266;50.866;4.398;2022-11-09T15:57:43;12.30;99.90
29237;DHT22;16266;50.866;4.398;2022-11-09T16:00:13;12.20;99.90
29237;DHT22;16266;50.866;4.398;2022-11-09T16:02:39;12.10;99.90
29237;DHT22;16266;50.866;4.398;2022-11-09T16:05:05;12.10;99.90
29237;DHT22;16266;50.866;4.398;2022-11-09T16:07:31;12.00;99.90
29237;DHT22;16266;50.866;4.398;2022-11-09T16:09:57;11.90;99.90
29237;DHT22;16266;50.866;4.398;2022-11-09T16:12:22;12.00;99.90
29237;DHT22;16266;50.866;4.398;2022-11-09T16:14:48;11.80;99.90
29237;DHT22;16266;50.866;4.398;2022-11-09T16:17:14;11.80;99.90
29237;DHT22;16266;50.866;4.398;2022-11-09T16:19:39;11.70;99.90
29237;DHT22;16266;50.866;4.398;2022-11-09T16:22:08;11.70;99.90
29237;DHT22;16266;50.866;4.398;2022-11-09T16:24:34;11.60;99.90
29237;DHT22;16266;50.866;4.398;2022-11-09T16:26:59;11.60;99.90
29237;DHT22;16266;50.866;4.398;2022-11-09T16:29:27;11.60;99.90
29237;DHT22;16266;50.866;4.398;2022-11-09T16:31:53;11.60;99.90
29237;DHT22;16266;50.866;4.398;2022-11-09T16:34:19;11.60;99.90
29237;DHT22;16266;50.866;4.398;2022-11-09T16:36:45;11.60;99.90
29237;DHT22;16266;50.866;4.398;2022-11-09T16:39:11;11.60;99.90
29237;DHT22;16266;50.866;4.398;2022-11-09T16:41:43;11.50;99.90
29237;DHT22;16266;50.866;4.398;2022-11-09T16:44:11;11.50;99.90
29237;DHT22;16266;50.866;4.398;2022-11-09T16:46:40;11.40;99.90
29237;DHT22;16266;50.866;4.398;2022-11-09T16:49:06;11.50;99.90
29237;DHT22;16266;50.866;4.398;2022-11-09T16:51:32;11.50;99.90
29237;DHT22;16266;50.866;4.398;2022-11-09T16:53:58;11.50;99.90
29237;DHT22;16266;50.866;4.398;2022-11-09T16:56:24;11.50;99.90
29237;DHT22;16266;50.866;4.398;2022-11-09T16:58:50;11.50;99.90
29237;DHT22;16266;50.866;4.398;2022-11-09T17:01:15;11.50;99.90
29237;DHT22;16266;50.866;4.398;2022-11-09T17:03:42;11.40;99.90
29237;DHT22;16266;50.866;4.398;2022-11-09T17:06:08;11.30;99.90
29237;DHT22;16266;50.866;4.398;2022-11-09T17:08:37;11.30;99.90
29237;DHT22;16266;50.866;4.398;2022-11-09T17:11:10;11.30;99.90
29237;DHT22;16266;50.866;4.398;2022-11-09T17:13:36;11.30;99.90
29237;DHT22;16266;50.866;4.398;2022-11-09T17:16:06;11.30;99.90
29237;DHT22;16266;50.866;4.398;2022-11-09T17:18:32;11.30;99.90
29237;DHT22;16266;50.866;4.398;2022-11-09T17:20:57;11.20;99.90
29237;DHT22;16266;50.866;4.398;2022-11-09T17:23:23;11.20;99.90
29237;DHT22;16266;50.866;4.398;2022-11-09T17:26:01;11.30;99.90
29237;DHT22;16266;50.866;4.398;2022-11-09T17:28:27;11.20;99.90
29237;DHT22;16266;50.866;4.398;2022-11-09T17:30:54;11.20;99.90
29237;DHT22;16266;50.866;4.398;2022-11-09T17:33:20;11.20;99.90
29237;DHT22;16266;50.866;4.398;2022-11-09T17:35:46;11.20;99.90
29237;DHT22;16266;50.866;4.398;2022-11-09T17:38:12;11.20;99.90
29237;DHT22;16266;50.866;4.398;2022-11-09T17:40:38;11.20;99.90
29237;DHT22;16266;50.866;4.398;2022-11-09T17:43:04;11.20;99.90
29237;DHT22;16266;50.866;4.398;2022-11-09T17:45:30;11.10;99.90
29237;DHT22;16266;50.866;4.398;2022-11-09T17:47:56;11.20;99.90
29237;DHT22;16266;50.866;4.398;2022-11-09T17:50:22;11.10;99.90